Time;durP1;ratioP1;P1;durP2;ratioP2;P2;SDS_P1;SDS_P2;PMS_P1;PMS_P2;Temp;Humidity;BMP_temperature;BMP_pressure;BME280_temperature;BME280_humidity;BME280_pressure;Samples;Min_cycle;Max_cycle;Signal;HPM_P1;HPM_P2
2022/05/18 00:00:36;;;;;;;16.47;9.93;;;;;;;;;;5096428;28;20494;-73
2022/05/18 00:03:07;;;;;;;11.53;9.57;;;;;;;;;;5096148;28;20451;-74
2022/05/18 00:05:34;;;;;;;11.77;9.80;;;;;;;;;;5096480;28;20797;-73
2022/05/18 00:08:01;;;;;;;11.27;10.10;;;;;;;;;;5096046;28;20450;-73
2022/05/18 00:10:28;;;;;;;10.73;9.63;;;;;;;;;;5096235;28;20473;-73
2022/05/18 00:12:55;;;;;;;11.13;9.93;;;;;;;;;;5096236;28;20453;-73
2022/05/18 00:15:23;;;;;;;11.67;10.57;;;;;;;;;;5096229;28;20447;-74
2022/05/18 00:17:50;;;;;;;13.50;10.50;;;;;;;;;;5096222;28;20451;-73
2022/05/18 00:20:19;;;;;;;14.20;10.20;;;;;;;;;;5096118;28;20477;-73
2022/05/18 00:22:47;;;;;;;16.90;11.23;;;;;;;;;;5095658;28;20508;-74
2022/05/18 00:25:14;;;;;;;11.90;10.07;;;;;;;;;;5096030;28;20427;-73
2022/05/18 00:27:41;;;;;;;13.60;10.20;;;;;;;;;;5095969;28;20450;-73
2022/05/18 00:30:09;;;;;;;11.20;9.90;;;;;;;;;;5095608;28;20474;-73
2022/05/18 00:32:36;;;;;;;12.00;10.40;;;;;;;;;;5095900;28;20447;-73
2022/05/18 00:35:04;;;;;;;10.97;9.43;;;;;;;;;;5095577;28;20447;-73
2022/05/18 00:37:32;;;;;;;16.70;11.20;;;;;;;;;;5095802;28;20966;-73
2022/05/18 00:39:59;;;;;;;13.17;11.77;;;;;;;;;;5095661;28;20474;-73
2022/05/18 00:42:27;;;;;;;11.73;10.57;;;;;;;;;;5095625;28;20497;-73
2022/05/18 00:44:55;;;;;;;11.90;9.43;;;;;;;;;;5095682;28;20454;-73
2022/05/18 00:47:22;;;;;;;13.90;9.67;;;;;;;;;;5095627;28;20454;-73
2022/05/18 00:49:52;;;;;;;10.47;9.37;;;;;;;;;;5095555;28;21089;-73
2022/05/18 00:52:21;;;;;;;12.50;10.20;;;;;;;;;;5094980;28;20427;-73
2022/05/18 00:54:50;;;;;;;12.50;10.77;;;;;;;;;;5095486;28;20462;-73
2022/05/18 00:57:19;;;;;;;10.77;9.67;;;;;;;;;;5095410;28;20952;-73
2022/05/18 00:59:50;;;;;;;10.50;9.40;;;;;;;;;;5095076;28;20482;-73
2022/05/18 01:02:18;;;;;;;14.30;10.10;;;;;;;;;;5095296;28;20474;-73
2022/05/18 01:04:47;;;;;;;12.37;10.03;;;;;;;;;;5095295;28;20470;-73
2022/05/18 01:07:17;;;;;;;15.37;9.83;;;;;;;;;;5095248;28;20457;-74
2022/05/18 01:09:47;;;;;;;14.10;11.70;;;;;;;;;;5095149;28;20479;-73
2022/05/18 01:12:16;;;;;;;13.40;10.70;;;;;;;;;;5095129;28;20447;-73
2022/05/18 01:14:46;;;;;;;12.90;10.03;;;;;;;;;;5095408;28;20451;-73
2022/05/18 01:17:15;;;;;;;16.37;11.90;;;;;;;;;;5094704;28;20457;-73
2022/05/18 01:19:44;;;;;;;13.30;9.47;;;;;;;;;;5094652;28;20582;-73
2022/05/18 01:22:14;;;;;;;11.63;10.30;;;;;;;;;;5094540;28;20478;-73
2022/05/18 01:24:46;;;;;;;12.27;10.50;;;;;;;;;;5094569;28;20843;-73
2022/05/18 01:27:14;;;;;;;16.47;11.40;;;;;;;;;;5094611;28;20438;-74
2022/05/18 01:29:41;;;;;;;12.97;10.43;;;;;;;;;;5094728;28;20470;-73
2022/05/18 01:32:13;;;;;;;18.90;9.03;;;;;;;;;;5094379;28;20451;-73
2022/05/18 01:34:42;;;;;;;12.67;9.60;;;;;;;;;;5094738;28;20896;-73
2022/05/18 01:37:09;;;;;;;14.23;12.17;;;;;;;;;;5094650;28;20450;-73
2022/05/18 01:39:38;;;;;;;16.17;11.83;;;;;;;;;;5094574;28;20959;-73
2022/05/18 01:42:09;;;;;;;21.27;13.10;;;;;;;;;;5094483;28;20493;-73
2022/05/18 01:44:40;;;;;;;21.67;12.33;;;;;;;;;;5094271;28;20441;-73
2022/05/18 01:47:07;;;;;;;16.40;10.97;;;;;;;;;;5094211;28;20435;-73
2022/05/18 01:49:35;;;;;;;22.83;13.37;;;;;;;;;;5094368;28;20470;-73
2022/05/18 01:52:02;;;;;;;19.20;12.67;;;;;;;;;;5094334;28;20816;-73
2022/05/18 01:54:29;;;;;;;17.37;11.10;;;;;;;;;;5094293;28;20939;-73
2022/05/18 01:56:58;;;;;;;16.47;12.30;;;;;;;;;;5094236;28;20451;-73
2022/05/18 01:59:25;;;;;;;15.07;10.60;;;;;;;;;;5094161;28;20991;-73
2022/05/18 02:01:54;;;;;;;17.00;12.17;;;;;;;;;;5093786;28;20875;-73
2022/05/18 02:04:21;;;;;;;16.73;12.37;;;;;;;;;;5093660;28;20461;-74
2022/05/18 02:06:48;;;;;;;17.67;11.80;;;;;;;;;;5093793;28;20451;-73
2022/05/18 02:09:19;;;;;;;15.63;11.97;;;;;;;;;;5093677;28;20450;-73
2022/05/18 02:11:46;;;;;;;15.20;13.53;;;;;;;;;;5094001;28;20470;-73
2022/05/18 02:14:13;;;;;;;15.57;13.17;;;;;;;;;;5094028;28;20480;-73
2022/05/18 02:16:42;;;;;;;19.47;14.30;;;;;;;;;;5093978;28;20455;-73
2022/05/18 02:19:11;;;;;;;18.83;13.43;;;;;;;;;;5093903;28;20442;-73
2022/05/18 02:21:38;;;;;;;28.93;15.17;;;;;;;;;;5093845;28;21006;-73
2022/05/18 02:24:05;;;;;;;17.63;13.37;;;;;;;;;;5093518;28;20462;-73
2022/05/18 02:26:32;;;;;;;17.00;13.20;;;;;;;;;;5093841;28;20939;-74
2022/05/18 02:29:00;;;;;;;17.20;12.83;;;;;;;;;;5093976;28;20901;-73
2022/05/18 02:31:27;;;;;;;15.37;13.40;;;;;;;;;;5093457;28;20451;-73
2022/05/18 02:33:54;;;;;;;17.20;13.40;;;;;;;;;;5093756;28;20792;-73
2022/05/18 02:36:22;;;;;;;17.83;12.10;;;;;;;;;;5093769;28;20454;-73
2022/05/18 02:38:50;;;;;;;13.43;11.97;;;;;;;;;;5093661;28;20454;-73
2022/05/18 02:41:19;;;;;;;15.60;12.00;;;;;;;;;;5093514;28;20990;-73
2022/05/18 02:43:46;;;;;;;16.63;14.23;;;;;;;;;;5093356;28;20458;-73
2022/05/18 02:46:15;;;;;;;20.90;12.90;;;;;;;;;;5093259;28;20458;-73
2022/05/18 02:48:42;;;;;;;16.57;12.97;;;;;;;;;;5093585;28;20470;-73
2022/05/18 02:51:10;;;;;;;21.63;13.97;;;;;;;;;;5093489;28;20472;-73
2022/05/18 02:53:39;;;;;;;18.13;13.73;;;;;;;;;;5093164;28;20446;-73
2022/05/18 02:56:05;;;;;;;20.77;13.90;;;;;;;;;;5093488;28;20446;-73
2022/05/18 02:58:33;;;;;;;19.23;14.00;;;;;;;;;;5093267;28;20427;-73
2022/05/18 03:01:00;;;;;;;17.93;13.07;;;;;;;;;;5093390;28;20963;-74
2022/05/18 03:03:28;;;;;;;16.97;13.60;;;;;;;;;;5093343;28;20569;-73
2022/05/18 03:05:55;;;;;;;17.93;13.80;;;;;;;;;;5093441;28;20454;-73
2022/05/18 03:08:22;;;;;;;17.00;14.73;;;;;;;;;;5093425;28;20851;-73
2022/05/18 03:10:50;;;;;;;17.63;12.40;;;;;;;;;;5093002;28;20477;-73
2022/05/18 03:13:17;;;;;;;21.73;14.73;;;;;;;;;;5093368;28;20912;-73
2022/05/18 03:15:46;;;;;;;23.00;15.13;;;;;;;;;;5097285;28;20450;-73
2022/05/18 03:18:13;;;;;;;17.50;15.30;;;;;;;;;;5097373;28;20805;-73
2022/05/18 03:23:34;;;;;;;19.77;14.63;;;;;;;;;;5096854;28;20569;-73
2022/05/18 03:26:03;;;;;;;18.20;14.90;;;;;;;;;;5097215;28;20434;-73
2022/05/18 03:28:30;;;;;;;20.03;13.93;;;;;;;;;;5097112;28;20813;-73
2022/05/18 03:30:57;;;;;;;18.97;15.03;;;;;;;;;;5096966;28;20524;-73
2022/05/18 03:33:24;;;;;;;18.87;13.57;;;;;;;;;;5097043;28;20451;-73
2022/05/18 03:35:52;;;;;;;17.50;13.30;;;;;;;;;;5096710;28;20447;-73
2022/05/18 03:38:20;;;;;;;17.30;14.37;;;;;;;;;;5096959;28;20451;-73
2022/05/18 03:40:47;;;;;;;18.07;13.20;;;;;;;;;;5096838;28;20975;-73
2022/05/18 03:43:15;;;;;;;17.37;13.50;;;;;;;;;;5096783;28;20490;-73
2022/05/18 03:45:42;;;;;;;15.67;13.37;;;;;;;;;;5096805;28;20454;-73
2022/05/18 03:48:11;;;;;;;14.50;12.97;;;;;;;;;;5096446;28;20469;-73
2022/05/18 03:50:39;;;;;;;17.40;13.77;;;;;;;;;;5096669;28;20983;-73
2022/05/18 03:53:07;;;;;;;13.93;12.10;;;;;;;;;;5096347;28;20520;-73
2022/05/18 03:55:34;;;;;;;17.27;13.93;;;;;;;;;;5096616;28;20819;-73
2022/05/18 03:58:01;;;;;;;18.87;13.50;;;;;;;;;;5096259;28;20541;-73
2022/05/18 04:00:30;;;;;;;19.90;13.07;;;;;;;;;;5096469;28;20474;-73
2022/05/18 04:02:57;;;;;;;15.07;12.03;;;;;;;;;;5096453;28;20485;-73
2022/05/18 04:05:25;;;;;;;15.23;12.77;;;;;;;;;;5096440;28;20454;-73
2022/05/18 04:07:52;;;;;;;14.43;12.20;;;;;;;;;;5096089;28;20451;-73
2022/05/18 04:10:19;;;;;;;16.00;14.20;;;;;;;;;;5096311;28;20493;-73
2022/05/18 04:12:47;;;;;;;15.83;13.13;;;;;;;;;;5096301;28;20450;-73
2022/05/18 04:15:16;;;;;;;15.33;12.47;;;;;;;;;;5096283;28;20461;-73
2022/05/18 04:17:45;;;;;;;13.40;12.00;;;;;;;;;;5095844;28;20481;-73
2022/05/18 04:20:13;;;;;;;11.33;10.13;;;;;;;;;;5096166;28;20514;-73
2022/05/18 04:22:40;;;;;;;12.43;10.47;;;;;;;;;;5095860;28;20478;-73
2022/05/18 04:25:08;;;;;;;11.03;10.03;;;;;;;;;;5095206;28;20450;-74
2022/05/18 04:27:35;;;;;;;10.63;9.40;;;;;;;;;;5095705;28;20931;-73
2022/05/18 04:30:02;;;;;;;10.03;9.03;;;;;;;;;;5095945;28;20587;-73
2022/05/18 04:32:29;;;;;;;16.03;9.27;;;;;;;;;;5095629;28;20451;-74
2022/05/18 04:34:57;;;;;;;9.23;8.33;;;;;;;;;;5095903;28;20796;-73
2022/05/18 04:37:24;;;;;;;11.60;9.50;;;;;;;;;;5095789;28;20478;-73
2022/05/18 04:39:52;;;;;;;9.27;8.30;;;;;;;;;;5095440;28;20474;-74
2022/05/18 04:42:22;;;;;;;10.37;9.37;;;;;;;;;;5095403;28;20486;-73
2022/05/18 04:44:50;;;;;;;9.77;8.57;;;;;;;;;;5095786;28;20458;-74
2022/05/18 04:47:17;;;;;;;8.90;8.10;;;;;;;;;;5095646;28;20500;-74
2022/05/18 04:49:44;;;;;;;12.80;7.90;;;;;;;;;;5095576;28;20474;-74
2022/05/18 04:52:13;;;;;;;12.00;7.33;;;;;;;;;;5095545;28;20469;-74
2022/05/18 04:54:40;;;;;;;8.07;7.33;;;;;;;;;;5095514;28;20451;-74
2022/05/18 04:57:08;;;;;;;8.00;7.30;;;;;;;;;;5095331;28;20817;-74
2022/05/18 04:59:35;;;;;;;8.97;8.07;;;;;;;;;;5094838;28;20474;-74
2022/05/18 05:02:02;;;;;;;8.23;7.53;;;;;;;;;;5095293;28;20932;-74
2022/05/18 05:04:29;;;;;;;7.70;7.00;;;;;;;;;;5095239;28;20451;-74
2022/05/18 05:06:56;;;;;;;7.23;6.53;;;;;;;;;;5094977;28;20451;-74
2022/05/18 05:09:25;;;;;;;10.80;9.77;;;;;;;;;;5095139;28;20990;-74
2022/05/18 05:11:52;;;;;;;7.47;6.77;;;;;;;;;;5094902;28;20455;-74
2022/05/18 05:14:19;;;;;;;7.40;6.70;;;;;;;;;;5095110;28;20806;-75
2022/05/18 05:16:47;;;;;;;7.40;6.10;;;;;;;;;;5095078;28;20455;-74
2022/05/18 05:19:14;;;;;;;6.80;6.20;;;;;;;;;;5094941;28;20901;-74
2022/05/18 05:21:42;;;;;;;6.13;5.63;;;;;;;;;;5095010;28;21001;-75
2022/05/18 05:24:10;;;;;;;9.93;6.30;;;;;;;;;;5094548;28;20533;-74
2022/05/18 05:26:38;;;;;;;10.03;6.43;;;;;;;;;;5094924;28;20962;-74
2022/05/18 05:29:06;;;;;;;7.57;5.80;;;;;;;;;;5094791;28;20462;-74
2022/05/18 05:31:33;;;;;;;6.93;6.17;;;;;;;;;;5094776;28;20451;-74
2022/05/18 05:34:00;;;;;;;7.20;6.10;;;;;;;;;;5094737;28;20503;-74
2022/05/18 05:36:28;;;;;;;6.47;5.60;;;;;;;;;;5094608;28;20811;-74
2022/05/18 05:38:55;;;;;;;6.27;5.60;;;;;;;;;;5094311;28;20459;-74
2022/05/18 05:41:22;;;;;;;5.40;4.90;;;;;;;;;;5094547;28;20478;-74
2022/05/18 05:43:51;;;;;;;5.07;4.57;;;;;;;;;;5094236;28;20486;-74
2022/05/18 05:46:18;;;;;;;5.30;4.90;;;;;;;;;;5094190;28;20462;-74
2022/05/18 05:48:46;;;;;;;6.07;4.40;;;;;;;;;;5094473;28;20459;-74
2022/05/18 05:51:14;;;;;;;5.87;5.30;;;;;;;;;;5094076;28;20466;-74
2022/05/18 05:53:41;;;;;;;6.93;4.90;;;;;;;;;;5094392;28;20795;-74
2022/05/18 05:56:09;;;;;;;5.40;4.70;;;;;;;;;;5094013;28;20462;-74
2022/05/18 05:58:37;;;;;;;4.90;4.50;;;;;;;;;;5094225;28;20462;-74
2022/05/18 06:01:06;;;;;;;4.43;4.03;;;;;;;;;;5093847;28;20474;-75
2022/05/18 06:03:34;;;;;;;4.90;4.50;;;;;;;;;;5094094;28;20983;-74
2022/05/18 06:06:02;;;;;;;5.03;4.57;;;;;;;;;;5094160;28;20450;-74
2022/05/18 06:08:30;;;;;;;4.43;4.03;;;;;;;;;;5094171;28;20454;-74
2022/05/18 06:10:57;;;;;;;5.83;4.00;;;;;;;;;;5093683;28;20500;-74
2022/05/18 06:13:25;;;;;;;4.03;3.70;;;;;;;;;;5093996;28;20928;-74
2022/05/18 06:15:52;;;;;;;4.03;3.73;;;;;;;;;;5094011;28;20455;-74
2022/05/18 06:18:21;;;;;;;4.03;3.73;;;;;;;;;;5093738;28;20438;-74
2022/05/18 06:20:49;;;;;;;5.20;4.33;;;;;;;;;;5093889;28;20474;-74
2022/05/18 06:23:16;;;;;;;4.83;4.00;;;;;;;;;;5093639;28;20909;-74
2022/05/18 06:25:44;;;;;;;4.50;4.20;;;;;;;;;;5093852;28;20477;-74
2022/05/18 06:28:12;;;;;;;4.63;4.23;;;;;;;;;;5093892;28;20454;-74
2022/05/18 06:30:39;;;;;;;5.03;3.93;;;;;;;;;;5093485;28;20466;-74
2022/05/18 06:33:06;;;;;;;4.90;4.50;;;;;;;;;;5093736;28;20826;-74
2022/05/18 06:35:35;;;;;;;4.67;4.27;;;;;;;;;;5093809;28;20455;-74
2022/05/18 06:38:02;;;;;;;5.23;3.50;;;;;;;;;;5093427;28;20461;-74
2022/05/18 06:43:10;;;;;;;4.00;3.60;;;;;;;;;;5092977;28;20480;-74
2022/05/18 06:45:37;;;;;;;5.10;3.87;;;;;;;;;;5093656;28;20454;-74
2022/05/18 06:48:04;;;;;;;4.37;3.97;;;;;;;;;;5093109;28;20458;-74
2022/05/18 06:50:31;;;;;;;4.40;4.10;;;;;;;;;;5093196;28;20467;-74
2022/05/18 06:53:00;;;;;;;3.93;3.63;;;;;;;;;;5093472;28;20931;-74
2022/05/18 06:55:27;;;;;;;6.30;3.97;;;;;;;;;;5093513;28;20451;-74
2022/05/18 06:57:54;;;;;;;5.23;3.90;;;;;;;;;;5093206;28;20458;-74
2022/05/18 07:00:22;;;;;;;4.50;3.50;;;;;;;;;;5093432;28;20836;-74
2022/05/18 07:02:50;;;;;;;4.10;3.70;;;;;;;;;;5093336;28;20486;-74
2022/05/18 07:05:18;;;;;;;4.30;3.90;;;;;;;;;;5093368;28;20463;-74
2022/05/18 07:07:45;;;;;;;4.73;4.33;;;;;;;;;;5093363;28;20958;-74
2022/05/18 07:10:13;;;;;;;5.03;3.93;;;;;;;;;;5093297;28;20477;-74
2022/05/18 07:12:40;;;;;;;4.10;3.60;;;;;;;;;;5093072;28;20453;-74
2022/05/18 07:15:08;;;;;;;5.40;3.77;;;;;;;;;;5093319;28;20450;-74
2022/05/18 07:17:35;;;;;;;3.80;3.50;;;;;;;;;;5093261;28;20465;-74
2022/05/18 07:20:03;;;;;;;3.50;3.20;;;;;;;;;;5093251;28;20470;-74
2022/05/18 07:22:30;;;;;;;4.10;3.70;;;;;;;;;;5093140;28;20843;-74
2022/05/18 07:24:57;;;;;;;5.40;3.57;;;;;;;;;;5093256;28;20453;-74
2022/05/18 07:27:25;;;;;;;4.33;3.90;;;;;;;;;;5092940;28;20446;-74
2022/05/18 07:29:52;;;;;;;4.30;3.90;;;;;;;;;;5093138;28;20478;-74
2022/05/18 07:32:19;;;;;;;4.43;4.13;;;;;;;;;;5093064;28;20470;-74
2022/05/18 07:34:47;;;;;;;5.00;4.60;;;;;;;;;;5093155;28;20457;-74
2022/05/18 07:37:15;;;;;;;4.07;3.77;;;;;;;;;;5093143;28;20452;-74
2022/05/18 07:39:43;;;;;;;3.83;3.43;;;;;;;;;;5092720;28;20482;-74
2022/05/18 07:42:11;;;;;;;6.40;4.63;;;;;;;;;;5092714;28;20451;-74
2022/05/18 07:44:39;;;;;;;4.03;3.70;;;;;;;;;;5092716;28;20489;-74
2022/05/18 07:47:07;;;;;;;4.50;3.73;;;;;;;;;;5092691;28;20492;-74
2022/05/18 07:49:37;;;;;;;3.70;3.40;;;;;;;;;;5092949;28;20466;-74
2022/05/18 07:52:05;;;;;;;4.53;3.60;;;;;;;;;;5092938;28;20446;-74
2022/05/18 07:54:32;;;;;;;4.13;3.73;;;;;;;;;;5092972;28;20454;-74
2022/05/18 07:56:59;;;;;;;4.00;3.60;;;;;;;;;;5092942;28;20812;-74
2022/05/18 07:59:26;;;;;;;5.13;3.50;;;;;;;;;;5092839;28;20994;-74
2022/05/18 08:01:55;;;;;;;6.60;3.57;;;;;;;;;;5095127;28;20457;-74
2022/05/18 08:04:22;;;;;;;4.60;4.20;;;;;;;;;;5096115;28;20485;-74
2022/05/18 08:06:49;;;;;;;7.47;4.10;;;;;;;;;;5096530;28;20936;-74
2022/05/18 08:09:19;;;;;;;3.23;3.03;;;;;;;;;;5096340;28;20872;-74
2022/05/18 08:17:26;;;;;;;3.87;3.57;;;;;;;;;;5096081;28;20774;-74
2022/05/18 08:19:53;;;;;;;4.30;3.40;;;;;;;;;;5096200;28;20471;-74
2022/05/18 08:22:20;;;;;;;12.37;3.40;;;;;;;;;;5096157;28;20457;-74
2022/05/18 08:24:48;;;;;;;4.20;3.30;;;;;;;;;;5095683;28;20556;-74
2022/05/18 08:27:16;;;;;;;4.10;3.47;;;;;;;;;;5096047;28;20451;-74
2022/05/18 08:29:43;;;;;;;6.23;3.13;;;;;;;;;;5095931;28;20467;-74
2022/05/18 08:32:10;;;;;;;3.50;3.20;;;;;;;;;;5095974;28;20814;-74
2022/05/18 08:34:38;;;;;;;4.87;3.73;;;;;;;;;;5095926;28;20455;-74
2022/05/18 08:37:05;;;;;;;5.60;4.17;;;;;;;;;;5095477;28;20467;-74
2022/05/18 08:39:33;;;;;;;4.17;3.77;;;;;;;;;;5095776;28;20968;-74
2022/05/18 08:42:01;;;;;;;6.97;3.33;;;;;;;;;;5095792;28;20477;-74
2022/05/18 08:44:31;;;;;;;5.80;3.60;;;;;;;;;;5095345;28;20482;-74
2022/05/18 08:47:05;;;;;;;4.37;3.27;;;;;;;;;;5095668;28;20451;-74
2022/05/18 08:49:39;;;;;;;3.90;3.60;;;;;;;;;;5095532;28;20481;-74
2022/05/18 08:52:18;;;;;;;5.03;3.60;;;;;;;;;;5095300;28;20449;-74
2022/05/18 08:54:50;;;;;;;4.20;3.63;;;;;;;;;;5095594;28;20919;-74
2022/05/18 08:57:20;;;;;;;4.20;3.57;;;;;;;;;;5095231;28;20427;-76
2022/05/18 08:59:48;;;;;;;5.80;3.30;;;;;;;;;;5095416;28;20971;-74
2022/05/18 09:02:17;;;;;;;3.77;3.37;;;;;;;;;;5095374;28;20451;-74
2022/05/18 09:04:49;;;;;;;8.30;3.87;;;;;;;;;;5095264;28;20487;-74
2022/05/18 09:07:19;;;;;;;4.70;4.20;;;;;;;;;;5095341;28;20806;-74
2022/05/18 09:12:36;;;;;;;5.13;3.90;;;;;;;;;;5094515;28;20495;-74
2022/05/18 09:15:04;;;;;;;4.97;3.57;;;;;;;;;;5095130;28;20443;-74
2022/05/18 09:17:35;;;;;;;4.00;3.60;;;;;;;;;;5094824;28;20572;-74
2022/05/18 09:20:11;;;;;;;5.97;3.53;;;;;;;;;;5095046;28;20481;-74
2022/05/18 09:22:47;;;;;;;5.13;3.67;;;;;;;;;;5094835;28;20971;-74
2022/05/18 09:25:21;;;;;;;5.47;3.67;;;;;;;;;;5094551;28;20557;-74
2022/05/18 09:27:56;;;;;;;4.80;3.97;;;;;;;;;;5094587;28;20435;-75
2022/05/18 09:30:25;;;;;;;5.30;3.67;;;;;;;;;;5094549;28;20472;-74
2022/05/18 09:33:02;;;;;;;3.93;3.53;;;;;;;;;;5094519;28;20450;-74
2022/05/18 09:35:44;;;;;;;4.43;3.77;;;;;;;;;;5094739;28;20471;-74
2022/05/18 09:38:15;;;;;;;4.33;3.93;;;;;;;;;;5094795;28;20488;-74
2022/05/18 09:40:44;;;;;;;6.90;3.57;;;;;;;;;;5094324;28;20471;-75
2022/05/18 09:43:13;;;;;;;7.40;3.80;;;;;;;;;;5094715;28;20911;-74
2022/05/18 09:45:42;;;;;;;3.97;3.50;;;;;;;;;;5094494;28;20962;-74
2022/05/18 09:48:11;;;;;;;8.53;3.50;;;;;;;;;;5094533;28;20447;-74
2022/05/18 09:50:39;;;;;;;7.27;3.50;;;;;;;;;;5094140;28;20473;-75
2022/05/18 09:53:06;;;;;;;5.73;3.50;;;;;;;;;;5094426;28;20446;-75
2022/05/18 09:55:35;;;;;;;4.03;3.60;;;;;;;;;;5094206;28;20820;-74
2022/05/18 09:58:05;;;;;;;4.93;3.20;;;;;;;;;;5094125;28;20435;-74
2022/05/18 10:00:33;;;;;;;8.80;4.13;;;;;;;;;;5093888;28;20466;-74
2022/05/18 10:08:33;;;;;;;3.83;3.40;;;;;;;;;;5094051;28;20428;-75
2022/05/18 10:11:03;;;;;;;4.50;3.23;;;;;;;;;;5093807;28;20469;-74
2022/05/18 10:13:32;;;;;;;4.83;3.27;;;;;;;;;;5093754;28;20446;-74
2022/05/18 10:16:05;;;;;;;4.17;3.60;;;;;;;;;;5094088;28;20500;-74
2022/05/18 10:18:36;;;;;;;6.37;3.77;;;;;;;;;;5094032;28;20802;-74
2022/05/18 10:21:07;;;;;;;4.73;2.93;;;;;;;;;;5093955;28;20467;-74
2022/05/18 10:23:37;;;;;;;4.07;3.50;;;;;;;;;;5092869;28;21019;-74
2022/05/18 10:26:10;;;;;;;6.13;3.30;;;;;;;;;;5093627;28;20454;-74
2022/05/18 10:28:41;;;;;;;4.77;3.40;;;;;;;;;;5093668;28;20431;-74
2022/05/18 10:31:09;;;;;;;6.83;3.57;;;;;;;;;;5093496;28;20470;-74
2022/05/18 10:33:37;;;;;;;3.87;3.27;;;;;;;;;;5093734;28;20450;-74
2022/05/18 10:36:10;;;;;;;4.97;3.13;;;;;;;;;;5093741;28;20462;-74
2022/05/18 10:38:38;;;;;;;3.70;3.37;;;;;;;;;;5093360;28;20488;-75
2022/05/18 10:41:15;;;;;;;4.50;3.37;;;;;;;;;;5093596;28;20963;-75
2022/05/18 10:43:44;;;;;;;4.90;4.00;;;;;;;;;;5093613;28;20930;-75
2022/05/18 10:46:12;;;;;;;4.13;3.73;;;;;;;;;;5093560;28;20450;-74
2022/05/18 10:48:40;;;;;;;3.97;3.33;;;;;;;;;;5093610;28;20461;-75
2022/05/18 10:51:08;;;;;;;3.70;3.23;;;;;;;;;;5093468;28;20474;-74
2022/05/18 10:53:37;;;;;;;5.03;3.40;;;;;;;;;;5093540;28;20460;-74
2022/05/18 10:56:10;;;;;;;2.80;2.57;;;;;;;;;;5093558;28;20458;-75
2022/05/18 10:58:39;;;;;;;3.60;3.30;;;;;;;;;;5093500;28;20423;-74
2022/05/18 11:01:10;;;;;;;6.77;3.40;;;;;;;;;;5093440;28;20474;-74
2022/05/18 11:03:40;;;;;;;7.70;3.53;;;;;;;;;;5093502;28;20819;-74
2022/05/18 11:06:09;;;;;;;3.63;3.33;;;;;;;;;;5093928;28;20427;-75
2022/05/18 11:08:36;;;;;;;5.90;3.20;;;;;;;;;;5093393;28;20459;-75
2022/05/18 11:11:06;;;;;;;3.87;3.20;;;;;;;;;;5093032;28;20471;-75
2022/05/18 11:13:38;;;;;;;3.80;3.23;;;;;;;;;;5093368;28;20450;-74
2022/05/18 11:16:11;;;;;;;5.83;3.60;;;;;;;;;;5093390;28;20556;-75
2022/05/18 11:18:42;;;;;;;6.40;3.30;;;;;;;;;;5093311;28;20848;-75
2022/05/18 11:21:12;;;;;;;3.57;2.77;;;;;;;;;;5093138;28;20987;-75
2022/05/18 11:23:42;;;;;;;3.97;2.57;;;;;;;;;;5092945;28;20492;-74
2022/05/18 11:26:14;;;;;;;4.50;3.13;;;;;;;;;;5093184;28;20991;-74
2022/05/18 11:28:51;;;;;;;8.03;2.40;;;;;;;;;;5093305;28;20442;-75
2022/05/18 11:31:29;;;;;;;5.30;2.70;;;;;;;;;;5092829;28;20475;-75
2022/05/18 11:34:00;;;;;;;5.63;3.10;;;;;;;;;;5092892;28;20534;-75
2022/05/18 11:36:29;;;;;;;3.00;2.80;;;;;;;;;;5096507;28;20454;-74
2022/05/18 11:39:03;;;;;;;6.47;3.67;;;;;;;;;;5097012;28;20474;-75
2022/05/18 11:41:35;;;;;;;3.27;2.40;;;;;;;;;;5097061;28;20811;-75
2022/05/18 11:44:05;;;;;;;2.93;2.30;;;;;;;;;;5096581;28;20435;-75
2022/05/18 11:46:41;;;;;;;4.20;3.27;;;;;;;;;;5096894;28;20492;-74
2022/05/18 11:49:15;;;;;;;4.70;3.60;;;;;;;;;;5096795;28;20427;-75
2022/05/18 11:51:48;;;;;;;2.83;2.53;;;;;;;;;;5096811;28;20903;-75
2022/05/18 11:54:20;;;;;;;4.60;2.97;;;;;;;;;;5096813;28;20431;-75
2022/05/18 11:56:50;;;;;;;5.27;3.20;;;;;;;;;;5096759;28;20431;-75
2022/05/18 11:59:39;;;;;;;5.03;2.70;;;;;;;;;;5096553;28;20447;-75
2022/05/18 12:02:17;;;;;;;4.10;3.00;;;;;;;;;;5096593;28;20899;-75
2022/05/18 12:04:54;;;;;;;5.20;3.10;;;;;;;;;;5096518;28;20929;-75
2022/05/18 12:07:30;;;;;;;9.70;4.40;;;;;;;;;;5096492;28;20453;-74
2022/05/18 12:10:04;;;;;;;3.50;3.20;;;;;;;;;;5096406;28;20481;-74
2022/05/18 12:12:36;;;;;;;3.50;2.57;;;;;;;;;;5096179;28;20435;-75
2022/05/18 12:15:10;;;;;;;2.47;2.10;;;;;;;;;;5096244;28;20522;-76
2022/05/18 12:17:41;;;;;;;2.57;2.37;;;;;;;;;;5096229;28;20442;-76
2022/05/18 12:20:12;;;;;;;4.30;3.00;;;;;;;;;;5095850;28;20482;-76
2022/05/18 12:22:41;;;;;;;5.60;2.33;;;;;;;;;;5095881;28;20465;-74
2022/05/18 12:25:09;;;;;;;8.03;2.23;;;;;;;;;;5095809;28;20478;-75
2022/05/18 12:27:37;;;;;;;3.63;2.40;;;;;;;;;;5095996;28;20928;-75
2022/05/18 12:30:08;;;;;;;2.70;2.40;;;;;;;;;;5095966;28;20471;-74
2022/05/18 12:32:36;;;;;;;3.50;2.63;;;;;;;;;;5095724;28;20439;-74
2022/05/18 12:35:08;;;;;;;8.57;2.30;;;;;;;;;;5095943;28;20446;-75
2022/05/18 12:37:36;;;;;;;4.70;2.23;;;;;;;;;;5095929;28;20478;-75
2022/05/18 12:40:08;;;;;;;3.13;2.47;;;;;;;;;;5095785;28;20474;-75
2022/05/18 12:42:36;;;;;;;2.50;2.30;;;;;;;;;;5095777;28;20451;-75
2022/05/18 12:45:05;;;;;;;3.00;2.57;;;;;;;;;;5095747;28;20597;-74
2022/05/18 12:47:45;;;;;;;4.53;3.20;;;;;;;;;;5094900;28;20813;-74
2022/05/18 12:50:14;;;;;;;2.83;2.57;;;;;;;;;;5095641;28;20470;-74
2022/05/18 12:52:45;;;;;;;4.03;2.70;;;;;;;;;;5095346;28;20454;-75
2022/05/18 12:55:30;;;;;;;3.00;2.20;;;;;;;;;;5095603;28;20431;-75
2022/05/18 12:58:05;;;;;;;4.30;2.73;;;;;;;;;;5095678;28;20468;-75
2022/05/18 13:00:47;;;;;;;4.50;2.90;;;;;;;;;;5095444;28;20473;-75
2022/05/18 13:03:25;;;;;;;3.50;2.30;;;;;;;;;;5095151;28;20437;-74
2022/05/18 13:05:54;;;;;;;3.10;2.30;;;;;;;;;;5095308;28;20470;-74
2022/05/18 13:08:37;;;;;;;3.43;2.53;;;;;;;;;;5095056;28;20454;-76
2022/05/18 13:11:10;;;;;;;5.87;2.67;;;;;;;;;;5093026;28;20510;-76
2022/05/18 13:13:56;;;;;;;4.47;2.30;;;;;;;;;;5095330;28;20900;-76
2022/05/18 13:16:36;;;;;;;2.60;2.20;;;;;;;;;;5095222;28;20423;-75
2022/05/18 13:19:15;;;;;;;6.07;2.30;;;;;;;;;;5095119;28;20434;-75
2022/05/18 13:21:45;;;;;;;3.40;2.27;;;;;;;;;;5094726;28;20435;-75
2022/05/18 13:24:14;;;;;;;5.37;2.77;;;;;;;;;;5094629;28;20470;-75
2022/05/18 13:26:44;;;;;;;5.73;2.40;;;;;;;;;;5094550;28;20486;-75
2022/05/18 13:29:12;;;;;;;3.73;2.23;;;;;;;;;;5094458;28;20507;-75
2022/05/18 13:31:40;;;;;;;7.73;2.60;;;;;;;;;;5094473;28;20508;-75
2022/05/18 13:34:11;;;;;;;6.63;2.60;;;;;;;;;;5094769;28;20905;-75
2022/05/18 13:36:40;;;;;;;3.33;2.30;;;;;;;;;;5094533;28;20435;-75
2022/05/18 13:39:08;;;;;;;4.50;2.20;;;;;;;;;;5094628;28;20457;-75
2022/05/18 13:41:36;;;;;;;4.20;2.53;;;;;;;;;;5094702;28;20449;-75
2022/05/18 13:44:04;;;;;;;4.50;2.80;;;;;;;;;;5094289;28;20447;-75
2022/05/18 13:46:33;;;;;;;4.00;2.37;;;;;;;;;;5094175;28;20478;-75
2022/05/18 13:49:02;;;;;;;9.07;2.33;;;;;;;;;;5094461;28;20459;-75
2022/05/18 13:51:34;;;;;;;5.33;2.33;;;;;;;;;;5094156;28;20455;-74
2022/05/18 13:54:03;;;;;;;2.57;2.37;;;;;;;;;;5094159;28;20435;-75
2022/05/18 13:56:33;;;;;;;3.27;2.23;;;;;;;;;;5094145;28;20958;-75
2022/05/18 13:59:02;;;;;;;3.77;2.07;;;;;;;;;;5094254;28;20926;-75
2022/05/18 14:01:31;;;;;;;5.97;2.47;;;;;;;;;;5094343;28;20482;-75
2022/05/18 14:03:58;;;;;;;3.63;3.17;;;;;;;;;;5094383;28;20443;-75
2022/05/18 14:06:26;;;;;;;4.37;2.13;;;;;;;;;;5094170;28;20486;-75
2022/05/18 14:08:58;;;;;;;8.13;2.30;;;;;;;;;;5094179;28;20446;-75
2022/05/18 14:11:26;;;;;;;2.90;2.00;;;;;;;;;;5093913;28;20533;-75
2022/05/18 14:13:53;;;;;;;3.27;2.00;;;;;;;;;;5093778;28;20457;-75
2022/05/18 14:16:25;;;;;;;3.80;2.13;;;;;;;;;;5094061;28;20447;-75
2022/05/18 14:18:54;;;;;;;4.23;2.40;;;;;;;;;;5094024;28;20905;-75
2022/05/18 14:21:21;;;;;;;4.70;2.20;;;;;;;;;;5093883;28;20501;-75
2022/05/18 14:23:52;;;;;;;2.17;1.97;;;;;;;;;;5093695;28;20458;-75
2022/05/18 14:26:23;;;;;;;3.60;2.53;;;;;;;;;;5093975;28;20999;-75
2022/05/18 14:28:53;;;;;;;5.80;2.40;;;;;;;;;;5093946;28;20466;-75
2022/05/18 14:31:22;;;;;;;2.40;2.20;;;;;;;;;;5093673;28;20478;-75
2022/05/18 14:33:50;;;;;;;6.47;2.40;;;;;;;;;;5093689;28;20461;-75
2022/05/18 14:36:23;;;;;;;2.80;2.20;;;;;;;;;;5093371;28;20576;-75
2022/05/18 14:38:51;;;;;;;2.83;1.90;;;;;;;;;;5093373;28;20439;-75
2022/05/18 14:41:22;;;;;;;4.57;2.10;;;;;;;;;;5093535;28;20471;-75
2022/05/18 14:43:51;;;;;;;5.77;2.20;;;;;;;;;;5093222;28;20435;-75
2022/05/18 14:46:21;;;;;;;3.60;2.40;;;;;;;;;;5093459;28;21021;-75
2022/05/18 14:48:51;;;;;;;3.20;2.10;;;;;;;;;;5093537;28;20625;-75
2022/05/18 14:51:21;;;;;;;2.27;2.07;;;;;;;;;;5093361;28;20553;-75
2022/05/18 14:53:49;;;;;;;3.83;1.90;;;;;;;;;;5093494;28;20439;-75
2022/05/18 14:56:17;;;;;;;5.40;2.17;;;;;;;;;;5093382;28;20454;-75
2022/05/18 14:58:46;;;;;;;2.40;1.80;;;;;;;;;;5093418;28;20959;-75
2022/05/18 15:01:27;;;;;;;3.90;2.10;;;;;;;;;;5093304;28;20470;-75
2022/05/18 15:03:54;;;;;;;6.93;2.40;;;;;;;;;;5093431;28;20442;-75
2022/05/18 15:06:25;;;;;;;3.77;2.40;;;;;;;;;;5093285;28;20834;-75